createdAt,value
2018-12-04T00:00:17.925Z,12.85
2018-12-04T00:01:17.859Z,12.92
2018-12-04T00:02:17.773Z,12.90
2018-12-04T00:03:17.694Z,12.93
2018-12-04T00:04:17.616Z,12.86
2018-12-04T00:05:38.527Z,12.85
2018-12-04T00:06:17.512Z,12.92
2018-12-04T00:07:17.432Z,12.85
2018-12-04T00:08:17.312Z,12.89
2018-12-04T00:09:17.235Z,12.72
2018-12-04T00:10:17.161Z,12.78
2018-12-04T00:11:38.068Z,12.77
2018-12-04T00:12:17.023Z,12.62
2018-12-04T00:13:16.935Z,12.52
2018-12-04T00:14:16.862Z,12.47
2018-12-04T00:15:16.777Z,12.28
2018-12-04T00:16:16.699Z,12.24
2018-12-04T00:17:37.656Z,12.21
2018-12-04T00:18:16.548Z,12.10
2018-12-04T00:19:16.473Z,12.14
2018-12-04T00:20:16.393Z,12.13
2018-12-04T00:21:16.317Z,12.12
2018-12-04T00:22:16.240Z,12.14
2018-12-04T00:23:37.151Z,12.12
2018-12-04T00:24:16.095Z,12.16
2018-12-04T00:25:16.013Z,12.21
2018-12-04T00:26:15.932Z,12.20
2018-12-04T00:27:15.869Z,12.16
2018-12-04T00:28:16.614Z,12.14
2018-12-04T00:29:36.694Z,12.19
2018-12-04T00:30:15.628Z,12.17
2018-12-04T00:31:15.550Z,12.14
2018-12-04T00:32:15.474Z,12.09
2018-12-04T00:33:15.404Z,12.14
2018-12-04T00:34:15.386Z,12.12
2018-12-04T00:35:36.228Z,12.04
2018-12-04T00:36:15.166Z,12.04
2018-12-04T00:37:15.089Z,12.07
2018-12-04T00:38:15.011Z,12.09
2018-12-04T00:39:14.944Z,12.05
2018-12-04T00:40:14.858Z,12.04
2018-12-04T00:41:35.762Z,11.91
2018-12-04T00:42:14.700Z,11.86
2018-12-04T00:43:14.634Z,11.85
2018-12-04T00:44:14.557Z,11.94
2018-12-04T00:45:14.480Z,11.80
2018-12-04T00:46:14.405Z,11.70
2018-12-04T00:47:36.139Z,11.75
2018-12-04T00:48:14.237Z,11.70
2018-12-04T00:49:15.673Z,11.67
2018-12-04T00:50:14.097Z,11.62
2018-12-04T00:51:14.015Z,11.58
2018-12-04T00:52:13.932Z,11.61
2018-12-04T00:53:34.837Z,11.69
2018-12-04T00:54:13.788Z,11.60
2018-12-04T00:55:13.711Z,11.47
2018-12-04T00:56:13.624Z,11.67
2018-12-04T00:57:13.549Z,11.65
2018-12-04T00:58:13.467Z,11.57
2018-12-04T00:59:34.377Z,11.52
2018-12-04T01:00:13.311Z,11.46
2018-12-04T01:01:13.246Z,11.49
2018-12-04T01:02:13.165Z,11.51
2018-12-04T01:03:13.092Z,11.51
2018-12-04T01:04:13.004Z,11.47
2018-12-04T01:05:33.916Z,11.47
2018-12-04T01:06:12.854Z,11.49
2018-12-04T01:07:12.779Z,11.46
2018-12-04T01:08:12.695Z,11.39
2018-12-04T01:09:12.617Z,11.32
2018-12-04T01:10:12.571Z,11.32
2018-12-04T01:11:33.445Z,11.25
2018-12-04T01:12:12.387Z,11.21
2018-12-04T01:13:12.327Z,11.04
2018-12-04T01:14:12.241Z,11.09
2018-12-04T01:16:12.116Z,11.07
2018-12-04T01:17:33.024Z,10.94
2018-12-04T01:18:11.963Z,10.84
2018-12-04T01:19:11.887Z,10.67
2018-12-04T01:20:11.792Z,10.53
2018-12-04T01:21:32.709Z,10.45
2018-12-04T01:22:32.632Z,10.40
2018-12-04T01:23:11.576Z,10.34
2018-12-04T01:24:11.503Z,10.30
2018-12-04T01:25:11.492Z,10.22
2018-12-04T01:26:32.384Z,10.30
2018-12-04T01:27:32.257Z,10.26
2018-12-04T01:28:11.179Z,10.25
2018-12-04T01:29:11.110Z,10.20
2018-12-04T01:30:11.028Z,10.12
2018-12-04T01:31:31.933Z,10.20
2018-12-04T01:32:31.845Z,10.15
2018-12-04T01:33:10.795Z,10.14
2018-12-04T01:34:10.720Z,10.23
2018-12-04T01:35:10.636Z,10.20
2018-12-04T01:36:31.542Z,10.20
2018-12-04T01:37:31.461Z,10.20
2018-12-04T01:38:10.397Z,10.18
2018-12-04T01:39:10.356Z,10.12
2018-12-04T01:40:10.243Z,10.14
2018-12-04T01:41:31.145Z,10.20
2018-12-04T01:42:31.070Z,10.18
2018-12-04T01:43:10.016Z,10.20
2018-12-04T01:44:09.933Z,10.14
2018-12-04T01:45:09.865Z,10.20
2018-12-04T01:46:30.764Z,10.17
2018-12-04T01:47:30.679Z,10.22
2018-12-04T01:48:09.627Z,10.15
2018-12-04T01:49:09.547Z,10.15
2018-12-04T01:50:09.476Z,10.18
2018-12-04T01:51:30.374Z,10.17
2018-12-04T01:52:30.289Z,10.15
2018-12-04T01:53:09.238Z,10.22
2018-12-04T01:54:09.150Z,10.26
2018-12-04T01:55:09.088Z,10.08
2018-12-04T01:56:29.982Z,10.12
2018-12-04T01:57:29.899Z,10.15
2018-12-04T01:58:08.850Z,10.15
2018-12-04T01:59:08.761Z,10.14
2018-12-04T02:00:08.708Z,10.20
2018-12-04T02:01:29.595Z,10.20
2018-12-04T02:02:29.517Z,10.17
2018-12-04T02:03:08.459Z,10.18
2018-12-04T02:04:08.376Z,10.17
2018-12-04T02:05:08.331Z,10.07
2018-12-04T02:06:29.203Z,10.18
2018-12-04T02:07:29.122Z,10.18
2018-12-04T02:08:08.063Z,10.14
2018-12-04T02:09:07.992Z,10.18
2018-12-04T02:10:07.904Z,10.20
2018-12-04T02:11:28.816Z,10.20
2018-12-04T02:12:28.729Z,10.20
2018-12-04T02:13:07.671Z,10.20
2018-12-04T02:14:07.601Z,10.15
2018-12-04T02:15:07.529Z,10.14
2018-12-04T02:16:28.422Z,10.17
2018-12-04T02:17:28.349Z,10.20
2018-12-04T02:18:07.290Z,10.25
2018-12-04T02:19:07.211Z,10.23
2018-12-04T02:20:07.137Z,10.20
2018-12-04T02:21:28.038Z,10.15
2018-12-04T02:22:27.957Z,10.20
2018-12-04T02:23:06.888Z,10.25
2018-12-04T02:24:06.874Z,10.26
2018-12-04T02:25:06.739Z,10.25
2018-12-04T02:26:27.641Z,10.25
2018-12-04T02:27:27.570Z,10.32
2018-12-04T02:28:06.503Z,10.22
2018-12-04T02:29:06.481Z,10.22
2018-12-04T02:30:06.350Z,10.22
2018-12-04T02:31:27.249Z,10.30
2018-12-04T02:32:27.192Z,10.20
2018-12-04T02:33:06.111Z,10.15
2018-12-04T02:34:06.037Z,10.20
2018-12-04T02:35:05.971Z,10.29
2018-12-04T02:36:26.862Z,10.18
2018-12-04T02:37:27.673Z,10.15
2018-12-04T02:38:05.727Z,10.15
2018-12-04T02:39:05.673Z,10.18
2018-12-04T02:40:05.582Z,10.14
2018-12-04T02:41:26.472Z,10.15
2018-12-04T02:42:26.385Z,10.14
2018-12-04T02:43:05.336Z,10.17
2018-12-04T02:44:05.253Z,10.22
2018-12-04T02:45:05.186Z,10.14
2018-12-04T02:46:26.088Z,10.14
2018-12-04T02:47:26.007Z,10.18
2018-12-04T02:48:04.949Z,10.11
2018-12-04T02:49:04.866Z,10.17
2018-12-04T02:50:04.787Z,10.15
2018-12-04T02:51:25.693Z,10.12
2018-12-04T02:52:25.626Z,10.20
2018-12-04T02:53:04.555Z,10.08
2018-12-04T02:54:04.481Z,10.15
2018-12-04T02:55:04.409Z,10.05
2018-12-04T02:56:25.311Z,10.14
2018-12-04T02:57:25.246Z,10.11
2018-12-04T02:58:04.186Z,10.07
2018-12-04T02:59:04.083Z,10.07
2018-12-04T03:00:04.009Z,10.04
2018-12-04T03:01:24.923Z,9.97
2018-12-04T03:02:24.837Z,10.05
2018-12-04T03:03:03.772Z,9.96
2018-12-04T03:04:03.700Z,9.91
2018-12-04T03:05:03.620Z,9.93
2018-12-04T03:06:24.517Z,9.93
2018-12-04T03:07:24.447Z,9.89
2018-12-04T03:08:03.387Z,9.84
2018-12-04T03:09:03.314Z,9.86
2018-12-04T03:10:03.232Z,9.84
2018-12-04T03:11:24.138Z,9.81
2018-12-04T03:12:24.062Z,9.76
2018-12-04T03:13:02.995Z,9.69
2018-12-04T03:14:02.915Z,9.75
2018-12-04T03:15:02.841Z,9.72
2018-12-04T03:16:23.736Z,9.69
2018-12-04T03:17:23.669Z,9.65
2018-12-04T03:18:02.608Z,9.66
2018-12-04T03:19:02.527Z,9.61
2018-12-04T03:20:02.449Z,9.64
2018-12-04T03:21:23.353Z,9.65
2018-12-04T03:22:23.269Z,9.60
2018-12-04T03:23:02.214Z,9.54
2018-12-04T03:24:02.143Z,9.54
2018-12-04T03:25:02.057Z,9.46
2018-12-04T03:26:22.960Z,9.42
2018-12-04T03:27:22.891Z,9.47
2018-12-04T03:28:01.826Z,9.48
2018-12-04T03:29:01.783Z,9.46
2018-12-04T03:30:01.724Z,9.40
2018-12-04T03:31:22.573Z,9.43
2018-12-04T03:32:22.490Z,9.51
2018-12-04T03:33:01.430Z,9.46
2018-12-04T03:34:01.355Z,9.46
2018-12-04T03:35:01.277Z,9.38
2018-12-04T03:36:22.174Z,9.32
2018-12-04T03:37:22.099Z,9.33
2018-12-04T03:38:01.035Z,9.39
2018-12-04T03:39:00.961Z,9.39
2018-12-04T03:40:00.877Z,9.38
2018-12-04T03:41:21.778Z,9.36
2018-12-04T03:42:21.705Z,9.42
2018-12-04T03:43:00.638Z,9.40
2018-12-04T03:44:00.571Z,9.33
2018-12-04T03:45:00.496Z,9.35
2018-12-04T03:46:21.384Z,9.35
2018-12-04T03:47:21.308Z,9.48
2018-12-04T03:48:00.248Z,9.31
2018-12-04T03:49:00.173Z,9.26
2018-12-04T03:50:00.086Z,9.42
2018-12-04T03:51:20.995Z,9.42
2018-12-04T03:52:20.911Z,9.42
2018-12-04T03:52:59.865Z,9.32
2018-12-04T03:53:59.774Z,9.28
2018-12-04T03:54:59.698Z,9.29
2018-12-04T03:56:20.602Z,9.29
2018-12-04T03:57:20.523Z,9.26
2018-12-04T03:57:59.459Z,9.28
2018-12-04T03:58:59.381Z,9.21
2018-12-04T03:59:59.302Z,9.26
2018-12-04T04:01:20.208Z,9.24
2018-12-04T04:02:20.129Z,9.26
2018-12-04T04:02:59.072Z,9.18
2018-12-04T04:03:59.037Z,9.26
2018-12-04T04:04:58.912Z,9.18
2018-12-04T04:06:19.806Z,9.26
2018-12-04T04:07:19.745Z,9.18
2018-12-04T04:07:58.685Z,9.11
2018-12-04T04:08:58.600Z,9.18
2018-12-04T04:09:58.514Z,9.05
2018-12-04T04:11:19.429Z,9.17
2018-12-04T04:12:19.340Z,9.10
2018-12-04T04:12:58.282Z,9.05
2018-12-04T04:13:58.200Z,9.08
2018-12-04T04:14:58.121Z,9.14
2018-12-04T04:16:19.035Z,9.13
2018-12-04T04:17:18.974Z,9.14
2018-12-04T04:17:57.881Z,9.05
2018-12-04T04:18:57.833Z,9.08
2018-12-04T04:19:57.735Z,9.02
2018-12-04T04:21:18.654Z,9.14
2018-12-04T04:22:18.556Z,9.13
2018-12-04T04:22:57.495Z,9.08
2018-12-04T04:23:57.410Z,9.05
2018-12-04T04:24:57.338Z,9.08
2018-12-04T04:26:18.280Z,8.94
2018-12-04T04:27:18.166Z,9.18
2018-12-04T04:27:57.100Z,9.02
2018-12-04T04:28:57.031Z,9.02
2018-12-04T04:29:56.934Z,9.11
2018-12-04T04:31:17.841Z,9.08
2018-12-04T04:32:17.758Z,9.08
2018-12-04T04:32:56.696Z,9.14
2018-12-04T04:33:56.622Z,9.08
2018-12-04T04:34:56.542Z,9.14
2018-12-04T04:36:17.443Z,9.10
2018-12-04T04:37:17.365Z,9.13
2018-12-04T04:37:56.301Z,9.05
2018-12-04T04:38:56.234Z,9.15
2018-12-04T04:39:56.150Z,9.15
2018-12-04T04:41:17.053Z,9.15
2018-12-04T04:42:17.016Z,9.14
2018-12-04T04:42:55.950Z,9.05
2018-12-04T04:43:55.850Z,9.14
2018-12-04T04:44:55.751Z,9.10
2018-12-04T04:46:16.765Z,9.11
2018-12-04T04:47:16.620Z,9.11
2018-12-04T04:47:55.524Z,9.14
2018-12-04T04:48:55.438Z,9.05
2018-12-04T04:49:55.366Z,9.05
2018-12-04T04:51:16.268Z,9.18
2018-12-04T04:52:16.190Z,9.11
2018-12-04T04:52:55.131Z,9.08
2018-12-04T04:53:55.043Z,9.08
2018-12-04T04:54:54.972Z,9.13
2018-12-04T04:56:15.872Z,9.11
2018-12-04T04:57:15.785Z,9.11
2018-12-04T04:57:54.732Z,9.05
2018-12-04T04:58:54.647Z,9.11
2018-12-04T04:59:54.564Z,9.11
2018-12-04T05:01:15.477Z,9.08
2018-12-04T05:02:15.388Z,9.14
2018-12-04T05:02:54.338Z,9.14
2018-12-04T05:03:54.252Z,9.10
2018-12-04T05:04:54.173Z,9.05
2018-12-04T05:06:15.082Z,9.08
2018-12-04T05:07:15.003Z,9.04
2018-12-04T05:07:53.946Z,9.11
2018-12-04T05:08:53.870Z,9.14
2018-12-04T05:09:53.789Z,9.05
2018-12-04T05:11:14.696Z,9.17
2018-12-04T05:12:14.596Z,9.13
2018-12-04T05:12:53.541Z,9.10
2018-12-04T05:13:53.463Z,9.21
2018-12-04T05:14:53.389Z,9.18
2018-12-04T05:16:14.285Z,9.15
2018-12-04T05:17:14.209Z,9.28
2018-12-04T05:17:53.143Z,9.26
2018-12-04T05:18:53.080Z,9.28
2018-12-04T05:19:52.988Z,9.29
2018-12-04T05:21:13.896Z,9.24
2018-12-04T05:22:13.813Z,9.31
2018-12-04T05:22:52.756Z,9.24
2018-12-04T05:23:52.673Z,9.29
2018-12-04T05:24:52.603Z,9.29
2018-12-04T05:26:13.493Z,9.26
2018-12-04T05:27:13.544Z,9.26
2018-12-04T05:27:52.357Z,9.24
2018-12-04T05:28:52.280Z,9.28
2018-12-04T05:29:52.218Z,9.33
2018-12-04T05:31:13.114Z,9.32
2018-12-04T05:32:13.040Z,9.21
2018-12-04T05:32:51.968Z,9.26
2018-12-04T05:33:51.899Z,9.26
2018-12-04T05:34:51.807Z,9.31
2018-12-04T05:36:12.707Z,9.28
2018-12-04T05:37:12.639Z,9.31
2018-12-04T05:37:51.567Z,9.26
2018-12-04T05:38:51.490Z,9.28
2018-12-04T05:39:51.416Z,9.33
2018-12-04T05:41:12.314Z,9.26
2018-12-04T05:42:12.230Z,9.31
2018-12-04T05:42:51.180Z,9.29
2018-12-04T05:43:51.096Z,9.29
2018-12-04T05:44:51.025Z,9.36
2018-12-04T05:46:11.919Z,9.31
2018-12-04T05:47:11.847Z,9.29
2018-12-04T05:47:50.783Z,9.40
2018-12-04T05:48:50.707Z,9.29
2018-12-04T05:49:50.636Z,9.29
2018-12-04T05:51:11.528Z,9.28
2018-12-04T05:52:11.466Z,9.39
2018-12-04T05:52:50.388Z,9.35
2018-12-04T05:53:50.312Z,9.38
2018-12-04T05:54:50.230Z,9.36
2018-12-04T05:56:11.126Z,9.36
2018-12-04T05:57:11.054Z,9.26
2018-12-04T05:57:49.985Z,9.42
2018-12-04T05:58:49.915Z,9.32
2018-12-04T05:59:49.839Z,9.38
2018-12-04T06:01:10.749Z,9.31
2018-12-04T06:02:10.656Z,9.40
2018-12-04T06:02:49.595Z,9.33
2018-12-04T06:03:49.516Z,9.39
2018-12-04T06:04:49.448Z,9.28
2018-12-04T06:06:10.341Z,9.39
2018-12-04T06:07:10.261Z,9.38
2018-12-04T06:07:49.218Z,9.33
2018-12-04T06:08:49.132Z,9.32
2018-12-04T06:09:49.057Z,9.33
2018-12-04T06:11:09.951Z,9.28
2018-12-04T06:12:09.872Z,9.28
2018-12-04T06:12:48.832Z,9.31
2018-12-04T06:13:48.735Z,9.24
2018-12-04T06:14:48.659Z,9.31
2018-12-04T06:16:09.551Z,9.26
2018-12-04T06:17:09.468Z,9.33
2018-12-04T06:17:48.417Z,9.23
2018-12-04T06:18:48.337Z,9.31
2018-12-04T06:19:48.265Z,9.24
2018-12-04T06:21:09.159Z,9.28
2018-12-04T06:22:09.093Z,9.26
2018-12-04T06:22:48.020Z,9.26
2018-12-04T06:23:47.941Z,9.26
2018-12-04T06:24:47.868Z,9.29
2018-12-04T06:26:08.761Z,9.18
2018-12-04T06:27:08.726Z,9.23
2018-12-04T06:27:47.628Z,9.28
2018-12-04T06:28:47.549Z,9.23
2018-12-04T06:29:47.474Z,9.20
2018-12-04T06:31:08.387Z,9.05
2018-12-04T06:32:08.294Z,9.13
2018-12-04T06:32:47.238Z,9.14
2018-12-04T06:33:47.186Z,9.05
2018-12-04T06:34:47.078Z,9.08
2018-12-04T06:36:07.979Z,9.08
2018-12-04T06:37:07.898Z,9.08
2018-12-04T06:37:46.846Z,9.08
2018-12-04T06:38:46.757Z,9.08
2018-12-04T06:39:46.683Z,9.15
2018-12-04T06:41:07.590Z,9.10
2018-12-04T06:42:07.509Z,9.20
2018-12-04T06:42:46.450Z,9.13
2018-12-04T06:43:47.293Z,9.20
2018-12-04T06:44:46.849Z,9.15
2018-12-04T06:46:07.196Z,9.08
2018-12-04T06:47:07.111Z,9.14
2018-12-04T06:47:46.051Z,9.10
2018-12-04T06:48:45.974Z,9.18
2018-12-04T06:49:45.888Z,9.18
2018-12-04T06:51:07.732Z,9.17
2018-12-04T06:52:06.714Z,9.20
2018-12-04T06:52:45.654Z,9.24
2018-12-04T06:53:45.590Z,9.29
2018-12-04T06:54:45.507Z,9.18
2018-12-04T06:56:06.420Z,9.21
2018-12-04T06:57:07.249Z,9.20
2018-12-04T06:57:45.277Z,9.17
2018-12-04T06:58:45.196Z,9.26
2018-12-04T06:59:45.115Z,9.31
2018-12-04T07:01:06.015Z,9.28
2018-12-04T07:02:05.925Z,9.21
2018-12-04T07:02:44.876Z,9.26
2018-12-04T07:03:44.843Z,9.24
2018-12-04T07:04:44.762Z,9.18
2018-12-04T07:06:05.615Z,9.14
2018-12-04T07:07:05.545Z,9.04
2018-12-04T07:07:44.471Z,9.14
2018-12-04T07:08:44.696Z,9.10
2018-12-04T07:09:44.319Z,8.99
2018-12-04T07:11:05.224Z,8.91
2018-12-04T07:12:05.148Z,8.95
2018-12-04T07:12:44.082Z,8.91
2018-12-04T07:13:44.012Z,8.91
2018-12-04T07:14:43.931Z,8.81
2018-12-04T07:16:04.838Z,8.84
2018-12-04T07:17:04.748Z,8.86
2018-12-04T07:17:43.685Z,8.84
2018-12-04T07:18:43.610Z,8.86
2018-12-04T07:19:43.534Z,8.86
2018-12-04T07:21:04.491Z,8.80
2018-12-04T07:22:04.351Z,8.84
2018-12-04T07:22:43.288Z,8.77
2018-12-04T07:23:43.218Z,8.80
2018-12-04T07:24:43.128Z,8.80
2018-12-04T07:26:04.033Z,8.77
2018-12-04T07:27:03.976Z,8.80
2018-12-04T07:27:42.903Z,8.83
2018-12-04T07:28:42.849Z,8.71
2018-12-04T07:29:42.742Z,8.77
2018-12-04T07:31:03.634Z,8.74
2018-12-04T07:32:03.560Z,8.76
2018-12-04T07:32:42.492Z,8.80
2018-12-04T07:33:42.422Z,8.80
2018-12-04T07:34:42.343Z,8.83
2018-12-04T07:36:03.246Z,8.86
2018-12-04T07:37:03.161Z,8.79
2018-12-04T07:37:42.137Z,8.74
2018-12-04T07:38:42.022Z,8.76
2018-12-04T07:39:41.940Z,8.77
2018-12-04T07:41:02.851Z,8.77
2018-12-04T07:42:02.766Z,8.79
2018-12-04T07:42:41.728Z,8.86
2018-12-04T07:43:41.627Z,8.86
2018-12-04T07:44:41.552Z,8.89
2018-12-04T07:46:02.448Z,8.83
2018-12-04T07:47:02.365Z,8.76
2018-12-04T07:47:41.310Z,8.73
2018-12-04T07:48:41.249Z,8.89
2018-12-04T07:49:41.203Z,8.84
2018-12-04T07:51:02.054Z,8.77
2018-12-04T07:52:01.987Z,8.77
2018-12-04T07:52:40.917Z,8.80
2018-12-04T07:53:40.835Z,8.86
2018-12-04T07:54:40.771Z,8.86
2018-12-04T07:56:02.386Z,8.81
2018-12-04T07:57:01.581Z,8.84
2018-12-04T07:57:40.526Z,8.86
2018-12-04T07:58:40.445Z,8.91
2018-12-04T07:59:40.358Z,8.92
2018-12-04T08:01:01.267Z,8.84
2018-12-04T08:02:01.180Z,8.91
2018-12-04T08:02:40.126Z,8.83
2018-12-04T08:03:40.050Z,8.81
2018-12-04T08:04:39.964Z,8.84
2018-12-04T08:06:00.867Z,8.86
2018-12-04T08:07:00.792Z,8.91
2018-12-04T08:07:39.725Z,8.87
2018-12-04T08:08:39.658Z,8.86
2018-12-04T08:09:39.569Z,8.95
2018-12-04T08:11:00.485Z,8.95
2018-12-04T08:12:00.391Z,8.96
2018-12-04T08:12:39.337Z,8.91
2018-12-04T08:13:39.292Z,8.91
2018-12-04T08:14:39.172Z,8.94
2018-12-04T08:16:00.073Z,8.91
2018-12-04T08:17:00.061Z,8.84
2018-12-04T08:17:38.938Z,8.87
2018-12-04T08:18:38.864Z,8.95
2018-12-04T08:19:38.784Z,8.83
2018-12-04T08:20:59.687Z,8.84
2018-12-04T08:21:59.610Z,8.84
2018-12-04T08:22:38.549Z,8.84
2018-12-04T08:23:38.463Z,8.80
2018-12-04T08:24:38.382Z,8.83
2018-12-04T08:25:59.282Z,9.01
2018-12-04T08:26:59.207Z,9.10
2018-12-04T08:27:38.146Z,9.08
2018-12-04T08:28:38.065Z,9.21
2018-12-04T08:29:38.008Z,9.53
2018-12-04T08:30:58.896Z,9.60
2018-12-04T08:31:58.819Z,9.43
2018-12-04T08:32:37.762Z,9.53
2018-12-04T08:33:37.671Z,9.53
2018-12-04T08:34:37.591Z,9.57
2018-12-04T08:35:58.520Z,9.54
2018-12-04T08:36:58.423Z,9.56
2018-12-04T08:37:37.364Z,9.56
2018-12-04T08:38:37.281Z,9.53
2018-12-04T08:39:37.206Z,9.42
2018-12-04T08:40:58.097Z,9.36
2018-12-04T08:41:58.018Z,9.29
2018-12-04T08:42:36.975Z,9.28
2018-12-04T08:43:36.901Z,9.24
2018-12-04T08:44:36.813Z,9.20
2018-12-04T08:45:57.713Z,9.13
2018-12-04T08:46:57.633Z,9.26
2018-12-04T08:47:36.572Z,9.26
2018-12-04T08:48:36.505Z,9.29
2018-12-04T08:49:36.430Z,9.42
2018-12-04T08:50:57.319Z,10.25
2018-12-04T08:51:57.238Z,10.89
2018-12-04T08:52:36.174Z,11.10
2018-12-04T08:53:36.111Z,10.88
2018-12-04T08:54:36.025Z,10.70
2018-12-04T08:55:56.928Z,10.59
2018-12-04T08:56:56.845Z,10.26
2018-12-04T08:57:35.789Z,10.15
2018-12-04T08:58:35.735Z,9.99
2018-12-04T08:59:35.641Z,9.83
2018-12-04T09:00:56.547Z,9.75
2018-12-04T09:01:56.462Z,9.61
2018-12-04T09:02:35.408Z,9.61
2018-12-04T09:03:35.312Z,9.60
2018-12-04T09:04:35.248Z,9.53
2018-12-04T09:05:56.149Z,9.47
2018-12-04T09:06:56.152Z,9.42
2018-12-04T09:07:35.010Z,9.36
2018-12-04T09:08:34.920Z,9.42
2018-12-04T09:09:34.845Z,9.40
2018-12-04T09:10:55.759Z,9.38
2018-12-04T09:11:55.684Z,9.43
2018-12-04T09:12:34.613Z,9.40
2018-12-04T09:13:34.532Z,9.42
2018-12-04T09:14:38.180Z,9.46
2018-12-04T09:15:55.352Z,9.43
2018-12-04T09:16:55.282Z,9.40
2018-12-04T09:17:34.218Z,9.38
2018-12-04T09:18:34.192Z,9.46
2018-12-04T09:19:34.081Z,9.33
2018-12-04T09:20:54.967Z,9.42
2018-12-04T09:21:55.786Z,9.47
2018-12-04T09:22:33.878Z,9.53
2018-12-04T09:23:33.764Z,9.47
2018-12-04T09:24:33.726Z,9.58
2018-12-04T09:25:54.629Z,9.56
2018-12-04T09:26:54.568Z,9.54
2018-12-04T09:27:33.481Z,9.57
2018-12-04T09:28:33.387Z,9.47
2018-12-04T09:29:33.322Z,9.42
2018-12-04T09:30:54.185Z,9.57
2018-12-04T09:31:54.313Z,9.65
2018-12-04T09:32:33.048Z,9.65
2018-12-04T09:33:33.008Z,9.61
2018-12-04T09:34:32.897Z,9.71
2018-12-04T09:35:53.801Z,9.61
2018-12-04T09:36:53.737Z,9.69
2018-12-04T09:37:32.659Z,9.66
2018-12-04T09:38:32.576Z,9.69
2018-12-04T09:39:32.521Z,9.79
2018-12-04T09:40:53.402Z,9.68
2018-12-04T09:41:53.325Z,9.65
2018-12-04T09:42:32.280Z,9.61
2018-12-04T09:43:32.192Z,9.56
2018-12-04T09:44:32.103Z,9.53
2018-12-04T09:45:53.009Z,9.54
2018-12-04T09:46:52.933Z,9.48
2018-12-04T09:47:31.880Z,9.51
2018-12-04T09:48:31.808Z,9.56
2018-12-04T09:49:31.717Z,9.48
2018-12-04T09:50:52.638Z,9.57
2018-12-04T09:51:52.550Z,9.56
2018-12-04T09:52:31.479Z,9.68
2018-12-04T09:53:31.409Z,9.81
2018-12-04T09:54:31.330Z,9.87
2018-12-04T09:55:52.227Z,9.90
2018-12-04T09:56:52.149Z,10.07
2018-12-04T09:57:31.092Z,10.12
2018-12-04T09:58:31.016Z,10.17
2018-12-04T09:59:30.948Z,10.23
2018-12-04T10:00:51.840Z,10.23
2018-12-04T10:01:51.766Z,10.23
2018-12-04T10:02:30.722Z,10.15
2018-12-04T10:03:30.627Z,10.08
2018-12-04T10:04:30.549Z,10.12
2018-12-04T10:05:51.462Z,10.11
2018-12-04T10:06:51.369Z,10.15
2018-12-04T10:07:30.332Z,10.02
2018-12-04T10:08:30.240Z,10.14
2018-12-04T10:09:30.162Z,9.97
2018-12-04T10:10:51.064Z,10.05
2018-12-04T10:11:50.990Z,9.99
2018-12-04T10:12:29.925Z,9.87
2018-12-04T10:13:30.780Z,9.97
2018-12-04T10:14:29.787Z,9.96
2018-12-04T10:15:50.671Z,10.01
2018-12-04T10:16:50.603Z,9.93
2018-12-04T10:17:29.546Z,10.02
2018-12-04T10:18:29.486Z,9.99
2018-12-04T10:19:29.384Z,10.01
2018-12-04T10:20:50.283Z,9.96
2018-12-04T10:21:50.203Z,9.97
2018-12-04T10:22:29.148Z,10.05
2018-12-04T10:23:29.070Z,9.93
2018-12-04T10:24:28.990Z,10.05
2018-12-04T10:25:49.889Z,9.97
2018-12-04T10:26:49.820Z,10.07
2018-12-04T10:27:28.765Z,10.09
2018-12-04T10:28:28.687Z,10.09
2018-12-04T10:29:28.610Z,10.08
2018-12-04T10:30:49.551Z,10.11
2018-12-04T10:31:55.792Z,10.15
2018-12-04T10:32:28.376Z,10.08
2018-12-04T10:33:28.299Z,10.09
2018-12-04T10:34:28.220Z,10.23
2018-12-04T10:35:49.122Z,10.18
2018-12-04T10:36:49.041Z,10.12
2018-12-04T10:37:28.024Z,10.09
2018-12-04T10:38:27.975Z,10.02
2018-12-04T10:39:27.829Z,9.99
2018-12-04T10:40:48.737Z,9.96
2018-12-04T10:41:48.649Z,10.05
2018-12-04T10:42:27.591Z,10.01
2018-12-04T10:43:27.519Z,10.02
2018-12-04T10:44:27.459Z,10.12
2018-12-04T10:45:48.344Z,10.02
2018-12-04T10:46:48.261Z,10.07
2018-12-04T10:47:27.210Z,10.12
2018-12-04T10:48:27.126Z,10.20
2018-12-04T10:49:27.053Z,10.11
2018-12-04T10:50:47.955Z,10.09
2018-12-04T10:51:47.881Z,10.07
2018-12-04T10:52:26.817Z,10.07
2018-12-04T10:53:26.745Z,10.17
2018-12-04T10:54:26.665Z,10.17
2018-12-04T10:55:47.566Z,10.18
2018-12-04T10:56:47.496Z,10.18
2018-12-04T10:57:26.431Z,10.07
2018-12-04T10:58:26.354Z,9.90
2018-12-04T10:59:26.274Z,10.02
2018-12-04T11:00:47.177Z,10.02
2018-12-04T11:01:47.098Z,9.97
2018-12-04T11:02:26.044Z,10.02
2018-12-04T11:03:25.970Z,9.89
2018-12-04T11:04:25.897Z,9.84
2018-12-04T11:05:46.790Z,9.91
2018-12-04T11:06:46.713Z,9.99
2018-12-04T11:07:25.649Z,9.94
2018-12-04T11:08:25.573Z,9.99
2018-12-04T11:09:25.489Z,9.97
2018-12-04T11:10:46.411Z,10.07
2018-12-04T11:11:46.325Z,10.09
2018-12-04T11:12:25.262Z,10.09
2018-12-04T11:13:25.182Z,10.08
2018-12-04T11:14:25.103Z,10.11
2018-12-04T11:15:46.014Z,10.12
2018-12-04T11:16:45.938Z,10.14
2018-12-04T11:17:24.872Z,10.12
2018-12-04T11:18:24.794Z,10.23
2018-12-04T11:19:24.730Z,10.15
2018-12-04T11:20:45.627Z,10.20
2018-12-04T11:21:45.545Z,10.22
2018-12-04T11:22:24.483Z,10.25
2018-12-04T11:23:24.406Z,10.36
2018-12-04T11:24:24.329Z,10.25
2018-12-04T11:25:45.245Z,10.22
2018-12-04T11:26:45.164Z,10.15
2018-12-04T11:27:24.101Z,10.25
2018-12-04T11:28:24.020Z,10.17
2018-12-04T11:29:23.948Z,10.15
2018-12-04T11:30:44.855Z,10.25
2018-12-04T11:31:44.767Z,10.34
2018-12-04T11:32:24.197Z,10.29
2018-12-04T11:33:23.628Z,10.27
2018-12-04T11:34:23.549Z,10.32
2018-12-04T11:35:44.453Z,10.27
2018-12-04T11:36:44.373Z,10.23
2018-12-04T11:37:23.323Z,10.25
2018-12-04T11:38:23.242Z,10.29
2018-12-04T11:39:23.171Z,10.29
2018-12-04T11:40:44.079Z,10.32
2018-12-04T11:41:43.999Z,10.26
2018-12-04T11:42:22.937Z,10.32
2018-12-04T11:43:22.854Z,10.41
2018-12-04T11:44:23.004Z,10.42
2018-12-04T11:45:43.682Z,10.41
2018-12-04T11:46:43.613Z,10.48
2018-12-04T11:47:22.568Z,10.36
2018-12-04T11:48:22.470Z,10.55
2018-12-04T11:49:22.397Z,10.51
2018-12-04T11:50:43.296Z,10.51
2018-12-04T11:51:43.222Z,10.40
2018-12-04T11:52:22.159Z,10.51
2018-12-04T11:53:22.103Z,10.52
2018-12-04T11:54:22.015Z,10.56
2018-12-04T11:55:42.908Z,10.56
2018-12-04T11:56:42.830Z,10.56
2018-12-04T11:57:21.764Z,10.48
2018-12-04T11:58:21.695Z,10.52
2018-12-04T11:59:21.619Z,10.45
2018-12-04T12:00:42.520Z,10.40
2018-12-04T12:01:44.304Z,10.40
2018-12-04T12:02:21.392Z,10.44
2018-12-04T12:03:21.309Z,10.41
2018-12-04T12:04:21.262Z,10.33
2018-12-04T12:05:42.132Z,10.33
2018-12-04T12:06:42.059Z,10.26
2018-12-04T12:07:21.005Z,10.30
2018-12-04T12:08:20.925Z,10.30
2018-12-04T12:09:20.837Z,10.32
2018-12-04T12:10:41.748Z,10.27
2018-12-04T12:11:41.671Z,10.29
2018-12-04T12:12:20.609Z,10.27
2018-12-04T12:13:20.531Z,10.26
2018-12-04T12:14:20.456Z,10.26
2018-12-04T12:15:41.358Z,10.32
2018-12-04T12:16:41.294Z,10.25
2018-12-04T12:17:20.222Z,10.29
2018-12-04T12:18:20.212Z,10.32
2018-12-04T12:19:20.071Z,10.29
2018-12-04T12:20:40.976Z,10.25
2018-12-04T12:21:42.822Z,10.29
2018-12-04T12:22:19.835Z,10.33
2018-12-04T12:23:19.758Z,10.30
2018-12-04T12:24:19.684Z,10.27
2018-12-04T12:25:40.595Z,10.14
2018-12-04T12:26:40.516Z,10.12
2018-12-04T12:27:19.449Z,10.18
2018-12-04T12:28:19.385Z,10.17
2018-12-04T12:29:19.299Z,10.08
2018-12-04T12:30:40.189Z,10.08
2018-12-04T12:31:40.116Z,10.05
2018-12-04T12:32:19.070Z,9.94
2018-12-04T12:33:18.996Z,10.04
2018-12-04T12:34:23.513Z,10.02
2018-12-04T12:35:39.807Z,10.01
2018-12-04T12:36:39.743Z,10.04
2018-12-04T12:37:18.674Z,10.08
2018-12-04T12:38:18.584Z,10.08
2018-12-04T12:39:18.514Z,10.11
2018-12-04T12:40:39.465Z,10.12
2018-12-04T12:41:39.355Z,10.05
2018-12-04T12:42:18.284Z,10.32
2018-12-04T12:43:18.209Z,10.27
2018-12-04T12:44:18.122Z,10.26
2018-12-04T12:45:39.031Z,10.38
2018-12-04T12:46:38.959Z,10.51
2018-12-04T12:47:17.887Z,10.63
2018-12-04T12:48:17.816Z,10.88
2018-12-04T12:49:17.731Z,11.03
2018-12-04T12:50:38.639Z,11.02
2018-12-04T12:51:38.552Z,10.97
2018-12-04T12:52:17.522Z,11.10
2018-12-04T12:53:17.439Z,11.18
2018-12-04T12:54:17.347Z,11.21
2018-12-04T12:55:38.251Z,11.43
2018-12-04T12:56:38.168Z,11.60
2018-12-04T12:57:17.126Z,11.82
2018-12-04T12:58:17.042Z,11.83
2018-12-04T12:59:16.961Z,11.61
2018-12-04T13:00:37.865Z,11.49
2018-12-04T13:01:37.815Z,11.35
2018-12-04T13:02:16.726Z,11.42
2018-12-04T13:03:16.661Z,11.51
2018-12-04T13:04:16.586Z,11.72
2018-12-04T13:05:37.491Z,11.90
2018-12-04T13:06:38.398Z,11.95